TimeCST,TemperatureF,Dew PointF,Humidity,Sea Level PressureIn,VisibilityMPH,Wind Direction,Wind SpeedMPH,Gust SpeedMPH,PrecipitationIn,Events,Conditions,WindDirDegrees,DateUTC
3:00 AM,79,76,89,29.95,12,East,3.5,,,,Scattered Clouds,90,2012-09-04 09:00:00
5:00 AM,77.0,77.0,100,29.94,6.2,Calm,Calm,-,N/A,,Scattered Clouds,0,2012-09-04 11:00:00
6:00 AM,77,75,92,29.95,12,Calm,Calm,,,,Mostly Cloudy,,2012-09-04 12:00:00
6:00 AM,77.0,75.2,94,29.95,6.2,Calm,Calm,-,N/A,,Mostly Cloudy,0,2012-09-04 12:00:00
7:00 AM,78.8,77.0,94,29.95,6.2,Calm,Calm,-,N/A,,Scattered Clouds,0,2012-09-04 13:00:00
8:00 AM,82.4,77.0,84,29.98,6.2,Calm,Calm,-,N/A,,Mostly Cloudy,0,2012-09-04 14:00:00
9:00 AM,84,78,78,29.99,12,Calm,Calm,,,Rain,Light Rain Showers,,2012-09-04 15:00:00
9:00 AM,84.2,78.8,84,29.98,6.2,Calm,Calm,-,N/A,,Mostly Cloudy,0,2012-09-04 15:00:00
10:00 AM,86.0,77.0,74,29.98,6.2,ESE,5.8,-,N/A,,Mostly Cloudy,110,2012-09-04 16:00:00
11:00 AM,87.8,77.0,70,29.98,6.2,SE,6.9,-,N/A,,Scattered Clouds,140,2012-09-04 17:00:00
12:00 PM,87,76,62,29.97,12,SSE,6.9,,,,Partly Cloudy,150,2012-09-04 18:00:00
12:00 PM,87.8,75.2,66,29.96,6.2,SSE,6.9,-,N/A,,Scattered Clouds,150,2012-09-04 18:00:00
1:00 PM,89.6,75.2,62,29.95,6.2,SE,6.9,-,N/A,,Scattered Clouds,140,2012-09-04 19:00:00
2:00 PM,87.8,77.0,70,29.93,6.2,ESE,6.9,-,N/A,,Scattered Clouds,110,2012-09-04 20:00:00
3:00 PM,87,76,62,29.92,12,ESE,6.9,,,,Scattered Clouds,110,2012-09-04 21:00:00
3:00 PM,87.8,75.2,66,29.91,6.2,ESE,6.9,-,N/A,,Partly Cloudy,110,2012-09-04 21:00:00
4:00 PM,87.8,75.2,66,29.90,6.2,ESE,5.8,-,N/A,,Partly Cloudy,110,2012-09-04 22:00:00
5:00 PM,87.8,75.2,66,29.90,6.2,East,6.9,-,N/A,,Partly Cloudy,90,2012-09-04 23:00:00
6:00 PM,84,75,69,29.92,12,East,5.8,,,,Scattered Clouds,90,2012-09-05 00:00:00
6:00 PM,84.2,75.2,74,29.92,6.2,East,5.8,-,N/A,,Scattered Clouds,90,2012-09-05 00:00:00
7:00 PM,82.4,77.0,84,29.92,6.2,East,4.6,-,N/A,,Partly Cloudy,100,2012-09-05 01:00:00
8:00 PM,80.6,77.0,89,29.95,6.2,ESE,3.5,-,N/A,,Partly Cloudy,120,2012-09-05 02:00:00
9:00 PM,80,76,83,29.96,12,ESE,2.3,,,,Scattered Clouds,110,2012-09-05 03:00:00